Babun Express — ERZZ — position and weather

sailwx.info

Track history (hours):
 
Tides and Currents Weather Stations Pressure Air Temp Water Temp Dewpoint Dewpoint Depression Visibility Wind Speed Wind Dir Waves Ship Positions

Babun Express

Last reported at 2018-Jul-16 00:03 UTC. Time now 2018-Jul-22 12:42 UTC.
Position N 25°22' W 079°53'.

Length 91 m; draft 4.2 m.

Type: Cargo ship. MMSI: 214182626.

Date/timePositionNaut miles runAvg speedWind from/ knotsBaromVisibWave heightAir tempDewpointWater temp
2018-Jul-16 00:03N 25°22' W 079°53'1 7.8
2018-Jul-15 23:52N 25°23' W 079°53'3 8.0
2018-Jul-15 23:30N 25°26' W 079°55'4 7.9
2018-Jul-15 23:01N 25°29' W 079°57'4 7.7
2018-Jul-15 22:30N 25°33' W 079°58'4 7.8
2018-Jul-15 22:01N 25°37' W 079°60'4 7.7
2018-Jul-15 21:31N 25°40' W 080°01'4 8.0
2018-Jul-15 21:00N 25°44' W 080°03'4 7.7
2018-Jul-15 20:30N 25°45' W 080°07'4 7.0
2018-Jul-15 20:00N 25°46' W 080°11'1 2.4
2018-Jul-15 19:30N 25°46' W 080°12'1 2.9
2018-Jul-15 19:01N 25°47' W 080°13'1 2.5
2018-Jul-15 18:30N 25°48' W 080°15'0 0.2
2018-Jul-15 18:01N 25°48' W 080°15'0 0.0
2018-Jul-15 17:30N 25°48' W 080°15'0 0.0
2018-Jul-15 17:00N 25°48' W 080°15'0 0.0
2018-Jul-15 16:30N 25°48' W 080°15'0 0.0
2018-Jul-15 16:00N 25°48' W 080°15'0 0.0
2018-Jul-15 15:30N 25°48' W 080°15'0 0.0
2018-Jul-15 15:00N 25°48' W 080°15'0 0.0
2018-Jul-15 14:30N 25°48' W 080°15'0 0.0
2018-Jul-15 14:00N 25°48' W 080°15'0 0.0
2018-Jul-15 13:31N 25°48' W 080°15'0 0.0
2018-Jul-15 13:01N 25°48' W 080°15'0 0.0
2018-Jul-15 12:31N 25°48' W 080°15'0 0.0
2018-Jul-15 12:00N 25°48' W 080°15'0 0.0
2018-Jul-15 11:31N 25°48' W 080°15'0 0.0
2018-Jul-15 11:00N 25°48' W 080°15'0 0.0
2018-Jul-15 10:30N 25°48' W 080°15'0 0.0
2018-Jul-15 10:01N 25°48' W 080°15'0 0.0
2018-Jul-15 09:31N 25°48' W 080°15'0 0.0
2018-Jul-15 09:01N 25°48' W 080°15'0 0.0
2018-Jul-15 08:31N 25°48' W 080°15'0 0.0
2018-Jul-15 08:00N 25°48' W 080°15'0 0.0
2018-Jul-15 07:29N 25°48' W 080°15'0 0.0
2018-Jul-15 07:00N 25°48' W 080°15'0 0.0
2018-Jul-15 06:31N 25°48' W 080°15'0 0.0
2018-Jul-15 06:01N 25°48' W 080°15'0 0.0
2018-Jul-15 05:30N 25°48' W 080°15'0 0.0
2018-Jul-15 05:00N 25°48' W 080°15'0 0.0
2018-Jul-15 04:30N 25°48' W 080°15'0 0.0
2018-Jul-15 04:00N 25°48' W 080°15'0 0.0
2018-Jul-15 03:30N 25°48' W 080°15'0 0.0
2018-Jul-15 03:00N 25°48' W 080°15'0 0.0
2018-Jul-15 02:30N 25°48' W 080°15'0 0.0
2018-Jul-15 02:01N 25°48' W 080°15'0 0.0
2018-Jul-15 01:31N 25°48' W 080°15'0 0.0
2018-Jul-15 01:01N 25°48' W 080°15'0 0.0
2018-Jul-15 00:31N 25°48' W 080°15'0 0.2
2018-Jul-15 00:00N 25°48' W 080°15'1 2.5
2018-Jul-14 23:30N 25°47' W 080°13'1 2.8
2018-Jul-14 23:01N 25°46' W 080°12'1 2.7
2018-Jul-14 22:31N 25°46' W 080°11'3 6.8
2018-Jul-14 22:01N 25°45' W 080°07'2 3.4
2018-Jul-14 21:30N 25°47' W 080°06'0 0.0
2018-Jul-14 21:01N 25°47' W 080°06'0 0.0
2018-Jul-14 20:30N 25°47' W 080°06'0 0.0
2018-Jul-14 20:01N 25°47' W 080°06'0 0.0
2018-Jul-14 19:30N 25°47' W 080°06'0 0.0
2018-Jul-14 19:01N 25°47' W 080°06'0 0.0
2018-Jul-14 18:30N 25°47' W 080°06'0 0.0
2018-Jul-14 18:00N 25°47' W 080°06'0 0.0
2018-Jul-14 17:30N 25°47' W 080°06'0 0.0
2018-Jul-14 17:00N 25°47' W 080°06'0 0.1
2018-Jul-14 16:30N 25°47' W 080°06'0 0.2
2018-Jul-14 16:01N 25°47' W 080°06'4 7.2
2018-Jul-14 15:30N 25°44' W 080°03'612.3
2018-Jul-14 15:00N 25°38' W 080°00'713.1
2018-Jul-14 14:30N 25°32' W 079°58'  
2018-Jul-07 00:16N 25°26' W 079°55'3 8.5
2018-Jul-06 23:59N 25°28' W 079°56'4 8.6
2018-Jul-06 23:30N 25°32' W 079°58'4 8.5
2018-Jul-06 23:00N 25°36' W 079°60'4 8.3
2018-Jul-06 22:30N 25°39' W 080°01'4 8.4
2018-Jul-06 22:00N 25°43' W 080°03'4 7.0
2018-Jul-06 21:30N 25°46' W 080°05'5 9.6
2018-Jul-06 21:00N 25°46' W 080°11'1 2.3
2018-Jul-06 20:31N 25°46' W 080°12'1 2.9
2018-Jul-06 20:00N 25°47' W 080°13'1 2.7
2018-Jul-06 19:29N 25°48' W 080°15'0 0.6
2018-Jul-06 18:59N 25°48' W 080°15'0 0.0
2018-Jul-06 18:26N 25°48' W 080°15'0 0.0
2018-Jul-06 17:59N 25°48' W 080°15'0 0.0
2018-Jul-06 17:26N 25°48' W 080°15'0 0.0
2018-Jul-06 16:56N 25°48' W 080°15'0 0.0
2018-Jul-06 16:28N 25°48' W 080°15'0 0.0
2018-Jul-06 15:58N 25°48' W 080°15'0 0.0
2018-Jul-06 15:28N 25°48' W 080°15'0 0.0
2018-Jul-06 14:58N 25°48' W 080°15'0 0.0
2018-Jul-06 14:28N 25°48' W 080°15'0 0.0
2018-Jul-06 13:58N 25°48' W 080°15'0 0.0
2018-Jul-06 13:28N 25°48' W 080°15'0 0.0
2018-Jul-06 12:58N 25°48' W 080°15'0 0.0
2018-Jul-06 12:28N 25°48' W 080°15'0 0.0
2018-Jul-06 11:58N 25°48' W 080°15'0 0.0
2018-Jul-06 11:28N 25°48' W 080°15'0 0.0
2018-Jul-06 10:58N 25°48' W 080°15'0 0.0
2018-Jul-06 10:28N 25°48' W 080°15'0 0.0
2018-Jul-06 09:58N 25°48' W 080°15'0 0.0
2018-Jul-06 09:28N 25°48' W 080°15'0 0.0
2018-Jul-06 08:58N 25°48' W 080°15'0 0.0
2018-Jul-06 08:28N 25°48' W 080°15'0 0.0
2018-Jul-06 07:58N 25°48' W 080°15'0 0.0
2018-Jul-06 07:28N 25°48' W 080°15'0 0.0
2018-Jul-06 06:49N 25°48' W 080°15'0 0.0
2018-Jul-06 06:19N 25°48' W 080°15'0 0.0
2018-Jul-06 05:58N 25°48' W 080°15'0 0.0
2018-Jul-06 05:28N 25°48' W 080°15'0 0.0
2018-Jul-06 04:58N 25°48' W 080°15'0 0.0
2018-Jul-06 04:28N 25°48' W 080°15'0 0.9
2018-Jul-06 03:58N 25°48' W 080°14'1 2.2
2018-Jul-06 03:30N 25°47' W 080°13'2 2.9
2018-Jul-06 02:58N 25°46' W 080°12'1 3.0
2018-Jul-06 02:30N 25°46' W 080°10'4 7.8
2018-Jul-06 02:00N 25°46' W 080°06'1 2.3
2018-Jul-06 01:27N 25°47' W 080°06'0 0.1
2018-Jul-06 01:00N 25°47' W 080°06'0 0.0
2018-Jul-06 00:30N 25°47' W 080°06'  
Track history (hours):
 
Tides and Currents Weather Stations Pressure Air Temp Water Temp Dewpoint Dewpoint Depression Visibility Wind Speed Wind Dir Waves Ship Positions

Babun Express

Last reported at 2018-Jul-16 00:03 UTC. Time now 2018-Jul-22 12:42 UTC.
Position N 25°22' W 079°53'.

Length 91 m; draft 4.2 m.

Type: Cargo ship. MMSI: 214182626.

Date/timePositionNaut miles runAvg speedWind from/ knotsBaromVisibWave heightAir tempDewpointWater temp
2018-Jul-16 00:03N 25°22' W 079°53'1 7.8
2018-Jul-15 23:52N 25°23' W 079°53'3 8.0
2018-Jul-15 23:30N 25°26' W 079°55'4 7.9
2018-Jul-15 23:01N 25°29' W 079°57'4 7.7
2018-Jul-15 22:30N 25°33' W 079°58'4 7.8
2018-Jul-15 22:01N 25°37' W 079°60'4 7.7
2018-Jul-15 21:31N 25°40' W 080°01'4 8.0
2018-Jul-15 21:00N 25°44' W 080°03'4 7.7
2018-Jul-15 20:30N 25°45' W 080°07'4 7.0
2018-Jul-15 20:00N 25°46' W 080°11'1 2.4
2018-Jul-15 19:30N 25°46' W 080°12'1 2.9
2018-Jul-15 19:01N 25°47' W 080°13'1 2.5
2018-Jul-15 18:30N 25°48' W 080°15'0 0.2
2018-Jul-15 18:01N 25°48' W 080°15'0 0.0
2018-Jul-15 17:30N 25°48' W 080°15'0 0.0
2018-Jul-15 17:00N 25°48' W 080°15'0 0.0
2018-Jul-15 16:30N 25°48' W 080°15'0 0.0
2018-Jul-15 16:00N 25°48' W 080°15'0 0.0
2018-Jul-15 15:30N 25°48' W 080°15'0 0.0
2018-Jul-15 15:00N 25°48' W 080°15'0 0.0
2018-Jul-15 14:30N 25°48' W 080°15'0 0.0
2018-Jul-15 14:00N 25°48' W 080°15'0 0.0
2018-Jul-15 13:31N 25°48' W 080°15'0 0.0
2018-Jul-15 13:01N 25°48' W 080°15'0 0.0
2018-Jul-15 12:31N 25°48' W 080°15'0 0.0
2018-Jul-15 12:00N 25°48' W 080°15'0 0.0
2018-Jul-15 11:31N 25°48' W 080°15'0 0.0
2018-Jul-15 11:00N 25°48' W 080°15'0 0.0
2018-Jul-15 10:30N 25°48' W 080°15'0 0.0
2018-Jul-15 10:01N 25°48' W 080°15'0 0.0
2018-Jul-15 09:31N 25°48' W 080°15'0 0.0
2018-Jul-15 09:01N 25°48' W 080°15'0 0.0
2018-Jul-15 08:31N 25°48' W 080°15'0 0.0
2018-Jul-15 08:00N 25°48' W 080°15'0 0.0
2018-Jul-15 07:29N 25°48' W 080°15'0 0.0
2018-Jul-15 07:00N 25°48' W 080°15'0 0.0
2018-Jul-15 06:31N 25°48' W 080°15'0 0.0
2018-Jul-15 06:01N 25°48' W 080°15'0 0.0
2018-Jul-15 05:30N 25°48' W 080°15'0 0.0
2018-Jul-15 05:00N 25°48' W 080°15'0 0.0
2018-Jul-15 04:30N 25°48' W 080°15'0 0.0
2018-Jul-15 04:00N 25°48' W 080°15'0 0.0
2018-Jul-15 03:30N 25°48' W 080°15'0 0.0
2018-Jul-15 03:00N 25°48' W 080°15'0 0.0
2018-Jul-15 02:30N 25°48' W 080°15'0 0.0
2018-Jul-15 02:01N 25°48' W 080°15'0 0.0
2018-Jul-15 01:31N 25°48' W 080°15'0 0.0
2018-Jul-15 01:01N 25°48' W 080°15'0 0.0
2018-Jul-15 00:31N 25°48' W 080°15'0 0.2
2018-Jul-15 00:00N 25°48' W 080°15'1 2.5
2018-Jul-14 23:30N 25°47' W 080°13'1 2.8
2018-Jul-14 23:01N 25°46' W 080°12'1 2.7
2018-Jul-14 22:31N 25°46' W 080°11'3 6.8
2018-Jul-14 22:01N 25°45' W 080°07'2 3.4
2018-Jul-14 21:30N 25°47' W 080°06'0 0.0
2018-Jul-14 21:01N 25°47' W 080°06'0 0.0
2018-Jul-14 20:30N 25°47' W 080°06'0 0.0
2018-Jul-14 20:01N 25°47' W 080°06'0 0.0
2018-Jul-14 19:30N 25°47' W 080°06'0 0.0
2018-Jul-14 19:01N 25°47' W 080°06'0 0.0
2018-Jul-14 18:30N 25°47' W 080°06'0 0.0
2018-Jul-14 18:00N 25°47' W 080°06'0 0.0
2018-Jul-14 17:30N 25°47' W 080°06'0 0.0
2018-Jul-14 17:00N 25°47' W 080°06'0 0.1
2018-Jul-14 16:30N 25°47' W 080°06'0 0.2
2018-Jul-14 16:01N 25°47' W 080°06'4 7.2
2018-Jul-14 15:30N 25°44' W 080°03'612.3
2018-Jul-14 15:00N 25°38' W 080°00'713.1
2018-Jul-14 14:30N 25°32' W 079°58'  
2018-Jul-07 00:16N 25°26' W 079°55'3 8.5
2018-Jul-06 23:59N 25°28' W 079°56'4 8.6
2018-Jul-06 23:30N 25°32' W 079°58'4 8.5
2018-Jul-06 23:00N 25°36' W 079°60'4 8.3
2018-Jul-06 22:30N 25°39' W 080°01'4 8.4
2018-Jul-06 22:00N 25°43' W 080°03'4 7.0
2018-Jul-06 21:30N 25°46' W 080°05'5 9.6
2018-Jul-06 21:00N 25°46' W 080°11'1 2.3
2018-Jul-06 20:31N 25°46' W 080°12'1 2.9
2018-Jul-06 20:00N 25°47' W 080°13'1 2.7
2018-Jul-06 19:29N 25°48' W 080°15'0 0.6
2018-Jul-06 18:59N 25°48' W 080°15'0 0.0
2018-Jul-06 18:26N 25°48' W 080°15'0 0.0
2018-Jul-06 17:59N 25°48' W 080°15'0 0.0
2018-Jul-06 17:26N 25°48' W 080°15'0 0.0
2018-Jul-06 16:56N 25°48' W 080°15'0 0.0
2018-Jul-06 16:28N 25°48' W 080°15'0 0.0
2018-Jul-06 15:58N 25°48' W 080°15'0 0.0
2018-Jul-06 15:28N 25°48' W 080°15'0 0.0
2018-Jul-06 14:58N 25°48' W 080°15'0 0.0
2018-Jul-06 14:28N 25°48' W 080°15'0 0.0
2018-Jul-06 13:58N 25°48' W 080°15'0 0.0
2018-Jul-06 13:28N 25°48' W 080°15'0 0.0
2018-Jul-06 12:58N 25°48' W 080°15'0 0.0
2018-Jul-06 12:28N 25°48' W 080°15'0 0.0
2018-Jul-06 11:58N 25°48' W 080°15'0 0.0
2018-Jul-06 11:28N 25°48' W 080°15'0 0.0
2018-Jul-06 10:58N 25°48' W 080°15'0 0.0
2018-Jul-06 10:28N 25°48' W 080°15'0 0.0
2018-Jul-06 09:58N 25°48' W 080°15'0 0.0
2018-Jul-06 09:28N 25°48' W 080°15'0 0.0
2018-Jul-06 08:58N 25°48' W 080°15'0 0.0
2018-Jul-06 08:28N 25°48' W 080°15'0 0.0
2018-Jul-06 07:58N 25°48' W 080°15'0 0.0
2018-Jul-06 07:28N 25°48' W 080°15'0 0.0
2018-Jul-06 06:49N 25°48' W 080°15'0 0.0
2018-Jul-06 06:19N 25°48' W 080°15'0 0.0
2018-Jul-06 05:58N 25°48' W 080°15'0 0.0
2018-Jul-06 05:28N 25°48' W 080°15'0 0.0
2018-Jul-06 04:58N 25°48' W 080°15'0 0.0
2018-Jul-06 04:28N 25°48' W 080°15'0 0.9
2018-Jul-06 03:58N 25°48' W 080°14'1 2.2
2018-Jul-06 03:30N 25°47' W 080°13'2 2.9
2018-Jul-06 02:58N 25°46' W 080°12'1 3.0
2018-Jul-06 02:30N 25°46' W 080°10'4 7.8
2018-Jul-06 02:00N 25°46' W 080°06'1 2.3
2018-Jul-06 01:27N 25°47' W 080°06'0 0.1
2018-Jul-06 01:00N 25°47' W 080°06'0 0.0
2018-Jul-06 00:30N 25°47' W 080°06'  

Dump ship's entire track history